Time;durP1;ratioP1;P1;durP2;ratioP2;P2;SDS_P1;SDS_P2;PMS_P1;PMS_P2;Temp;Humidity;BMP_temperature;BMP_pressure;BME280_temperature;BME280_humidity;BME280_pressure;Samples;Min_cycle;Max_cycle;Signal;HPM_P1;HPM_P2
2022/07/03 00:02:13;;;;;;;12.88;7.22;;;;;;;29.46;43.76;101191.94;4969414;28;20063;-80
2022/07/03 00:04:40;;;;;;;21.58;7.47;;;;;;;29.56;43.85;101220.28;4969038;28;20153;-81
2022/07/03 00:07:08;;;;;;;12.52;7.80;;;;;;;30.01;43.91;101303.44;4969522;28;20062;-79
2022/07/03 00:09:34;;;;;;;13.32;8.02;;;;;;;29.93;44.02;101296.47;4953070;28;20074;-80
2022/07/03 00:12:01;;;;;;;16.85;8.57;;;;;;;29.73;44.20;101264.09;4969571;28;20054;-79
2022/07/03 00:14:28;;;;;;;15.25;7.28;;;;;;;29.84;44.22;101297.13;4968916;28;20081;-80
2022/07/03 00:16:55;;;;;;;11.52;7.32;;;;;;;29.79;44.65;101295.13;4969078;28;20051;-78
2022/07/03 00:19:21;;;;;;;17.10;8.48;;;;;;;29.84;44.54;101297.94;4968294;28;20047;-80
2022/07/03 00:22:04;;;;;;;14.48;7.43;;;;;;;29.32;45.27;101207.84;4970499;28;20054;-81
2022/07/03 00:24:49;;;;;;;16.67;7.80;;;;;;;29.75;44.36;101251.00;4974598;28;20051;-82
2022/07/03 00:27:18;;;;;;;13.70;7.22;;;;;;;29.12;44.44;101159.09;4974701;28;20325;-79
2022/07/03 00:29:45;;;;;;;21.92;7.85;;;;;;;29.89;44.65;101292.56;4973811;28;20057;-79
2022/07/03 00:32:21;;;;;;;15.38;8.13;;;;;;;29.85;44.83;101298.78;4970980;28;20046;-79
2022/07/03 00:34:51;;;;;;;12.77;7.63;;;;;;;29.75;45.01;101302.16;4969905;28;20142;-78
2022/07/03 00:37:19;;;;;;;16.75;7.57;;;;;;;29.71;44.90;101303.72;4969468;28;20047;-79
2022/07/03 00:39:46;;;;;;;12.60;7.50;;;;;;;29.53;45.07;101280.97;4959482;28;20392;-78
2022/07/03 00:42:13;;;;;;;20.45;7.57;;;;;;;29.61;44.91;101299.72;4949371;29;20130;-80
2022/07/03 00:44:48;;;;;;;10.20;7.28;;;;;;;29.41;45.29;101263.78;4950503;28;20410;-80
2022/07/03 00:47:18;;;;;;;10.10;7.45;;;;;;;28.82;45.15;101181.22;4949243;29;20410;-80
2022/07/03 00:49:50;;;;;;;14.15;8.10;;;;;;;29.58;45.40;101305.66;4949155;29;20419;-80
2022/07/03 00:52:19;;;;;;;12.18;7.35;;;;;;;29.42;45.57;101284.63;4949262;28;20546;-80
2022/07/03 00:54:58;;;;;;;13.90;7.53;;;;;;;29.57;45.43;101298.56;4968083;28;20050;-80
2022/07/03 00:57:27;;;;;;;19.75;7.78;;;;;;;29.58;45.33;101300.19;4968480;28;20144;-80
2022/07/03 00:59:55;;;;;;;18.52;7.25;;;;;;;29.47;45.47;101281.97;4968049;28;20054;-80
2022/07/03 01:02:45;;;;;;;16.02;7.43;;;;;;;29.30;46.34;101264.66;4967625;28;20050;-80
2022/07/03 01:05:25;;;;;;;11.93;7.28;;;;;;;29.22;46.23;101251.41;4968148;28;20058;-80
2022/07/03 01:08:01;;;;;;;13.73;8.40;;;;;;;29.49;46.10;101285.28;4969780;28;20050;-82
2022/07/03 01:10:43;;;;;;;17.60;7.50;;;;;;;28.90;46.15;101197.22;4968020;28;20055;-80
2022/07/03 01:13:31;;;;;;;11.98;7.35;;;;;;;29.54;46.47;101288.13;4968296;28;20110;-80
2022/07/03 01:16:12;;;;;;;10.30;7.80;;;;;;;29.09;46.11;101230.66;4968245;28;20055;-80
2022/07/03 01:18:51;;;;;;;19.70;9.30;;;;;;;29.42;46.40;101281.88;4967869;28;20058;-79
2022/07/03 01:21:48;;;;;;;22.63;8.10;;;;;;;29.18;46.64;101253.81;4967849;28;20065;-80
2022/07/03 01:24:43;;;;;;;16.60;8.30;;;;;;;29.28;46.54;101284.06;4967681;28;20054;-79
2022/07/03 01:27:18;;;;;;;12.90;7.75;;;;;;;29.21;46.85;101298.97;4967867;28;20058;-80
2022/07/03 01:30:07;;;;;;;15.15;7.57;;;;;;;29.20;45.55;101278.97;4967775;28;20109;-81
2022/07/03 01:32:45;;;;;;;15.07;8.10;;;;;;;28.73;46.35;101225.28;4967529;28;20055;-80
2022/07/03 01:35:15;;;;;;;12.15;7.05;;;;;;;28.58;46.59;101202.31;4968923;28;20055;-80
2022/07/03 01:37:44;;;;;;;12.75;8.25;;;;;;;29.09;45.90;101285.34;4967545;28;20101;-79
2022/07/03 01:40:11;;;;;;;13.68;7.95;;;;;;;29.10;46.04;101284.25;4964128;28;20094;-81
2022/07/03 01:42:41;;;;;;;17.45;7.22;;;;;;;29.15;45.82;101284.34;4949147;28;20074;-80
2022/07/03 01:45:10;;;;;;;18.67;6.75;;;;;;;29.08;45.95;101273.59;4949298;28;20113;-79
2022/07/03 01:47:41;;;;;;;11.35;7.47;;;;;;;29.00;45.96;101268.44;4964028;28;20052;-80
2022/07/03 01:50:10;;;;;;;;;;;;;;;29.01;46.00;101283.78;4964552;28;20091;-80
2022/07/03 01:52:40;;;;;;;12.82;7.50;;;;;;;29.00;45.62;101284.03;4950880;28;19930;-79
2022/07/03 01:55:14;;;;;;;17.38;6.95;;;;;;;29.01;45.83;101277.47;4967368;28;20138;-81
2022/07/03 01:57:44;;;;;;;12.02;6.70;;;;;;;29.00;45.90;101284.03;4968049;28;20050;-81
2022/07/03 02:00:12;;;;;;;15.70;7.95;;;;;;;28.76;45.68;101243.09;4967438;28;20082;-81
2022/07/03 02:02:59;;;;;;;13.50;7.28;;;;;;;28.98;46.13;101285.13;4977031;28;20047;-80
2022/07/03 02:05:30;;;;;;;10.45;7.68;;;;;;;28.92;45.82;101288.81;4984657;28;20074;-81
2022/07/03 02:08:09;;;;;;;11.65;7.50;;;;;;;28.93;45.75;101281.44;4987800;28;20074;-82
2022/07/03 02:10:46;;;;;;;16.58;7.95;;;;;;;28.51;45.64;101218.84;4977338;28;20070;-81
2022/07/03 02:13:23;;;;;;;9.77;6.78;;;;;;;28.91;45.68;101280.84;4968814;28;20067;-81
2022/07/03 02:15:51;;;;;;;13.70;6.38;;;;;;;28.89;45.56;101269.34;4969490;28;20093;-80
2022/07/03 02:18:32;;;;;;;11.27;7.38;;;;;;;28.88;45.88;101275.88;4974787;28;20536;-81
2022/07/03 02:21:10;;;;;;;12.90;7.47;;;;;;;28.79;45.89;101258.19;4968706;28;20137;-80
2022/07/03 02:24:00;;;;;;;13.63;7.70;;;;;;;28.86;46.19;101276.13;4967841;28;20106;-80
2022/07/03 02:26:32;;;;;;;15.10;9.55;;;;;;;28.34;46.41;101202.34;4967670;28;20154;-80
2022/07/03 02:29:03;;;;;;;11.27;7.22;;;;;;;28.49;46.67;101238.19;4968177;28;20387;-80
2022/07/03 02:31:38;;;;;;;15.18;7.50;;;;;;;28.54;46.66;101242.91;4967039;28;20047;-80
2022/07/03 02:34:06;;;;;;;15.63;7.25;;;;;;;28.64;46.21;101267.72;4967291;28;20058;-81
2022/07/03 02:36:39;;;;;;;16.20;7.25;;;;;;;28.53;46.23;101244.00;4967187;28;20046;-80
2022/07/03 02:39:16;;;;;;;10.90;7.05;;;;;;;28.62;46.03;101258.09;4962474;28;20426;-80
2022/07/03 02:41:48;;;;;;;23.25;8.27;;;;;;;28.79;45.99;101285.50;4949535;28;20055;-80
2022/07/03 02:44:25;;;;;;;12.57;7.13;;;;;;;28.75;46.29;101280.53;4951460;29;20146;-79
2022/07/03 02:47:00;;;;;;;10.38;6.85;;;;;;;28.77;45.87;101285.75;4952458;29;20133;-80
2022/07/03 02:49:48;;;;;;;8.80;7.28;;;;;;;28.72;45.97;101281.03;4952104;29;20062;-81
2022/07/03 02:52:22;;;;;;;19.02;8.35;;;;;;;28.17;46.52;101202.22;4952763;29;20055;-81
2022/07/03 02:54:51;;;;;;;15.40;6.97;;;;;;;28.67;45.80;101267.25;4951313;29;20047;-79
2022/07/03 02:57:19;;;;;;;11.20;7.13;;;;;;;28.49;46.00;101249.09;4952665;28;20150;-79
2022/07/03 02:59:52;;;;;;;13.18;7.53;;;;;;;28.64;45.75;101281.38;4966918;28;20503;-79
2022/07/03 03:02:39;;;;;;;12.52;6.72;;;;;;;28.64;45.29;101284.09;4952071;28;20071;-82
2022/07/03 03:05:13;;;;;;;15.02;6.60;;;;;;;28.29;45.00;101211.25;4951458;29;20047;-80
2022/07/03 03:07:49;;;;;;;10.02;7.20;;;;;;;28.11;45.33;101181.38;4952447;28;20407;-81
2022/07/03 03:10:18;;;;;;;9.68;6.85;;;;;;;28.08;45.05;101188.09;4952897;28;20047;-80
2022/07/03 03:12:52;;;;;;;15.63;6.50;;;;;;;28.43;44.39;101232.84;4950945;29;20061;-80
2022/07/03 03:15:20;;;;;;;9.85;6.80;;;;;;;28.48;44.96;101243.91;4951058;29;20087;-80
2022/07/03 03:17:51;;;;;;;12.88;7.05;;;;;;;28.56;44.99;101257.16;4950693;29;20059;-80
2022/07/03 03:20:23;;;;;;;11.98;7.38;;;;;;;28.73;44.52;101285.41;4950815;29;20051;-80
2022/07/03 03:22:56;;;;;;;14.60;7.60;;;;;;;28.43;44.27;101227.38;4966410;28;20083;-80
2022/07/03 03:25:23;;;;;;;14.88;7.10;;;;;;;28.52;44.45;101253.25;4950358;29;20051;-80
2022/07/03 03:27:50;;;;;;;16.10;7.20;;;;;;;28.65;44.54;101279.50;4951479;29;20249;-80
2022/07/03 03:30:17;;;;;;;9.35;7.20;;;;;;;28.43;44.86;101243.75;4950360;29;20509;-80
2022/07/03 03:32:44;;;;;;;15.32;7.78;;;;;;;28.53;44.56;101271.31;4949822;29;20102;-80
2022/07/03 03:35:11;;;;;;;14.50;7.38;;;;;;;28.16;44.99;101208.78;4951295;29;20059;-79
2022/07/03 03:37:38;;;;;;;9.65;7.00;;;;;;;28.13;45.02;101207.34;4951391;28;20047;-80
2022/07/03 03:40:05;;;;;;;14.68;7.80;;;;;;;28.31;45.26;101251.97;4969207;28;20050;-79
2022/07/03 03:42:32;;;;;;;13.25;7.22;;;;;;;28.46;45.46;101292.47;4969101;28;20434;-80
2022/07/03 03:44:59;;;;;;;21.70;7.18;;;;;;;28.46;45.44;101292.47;4969565;28;20054;-80
2022/07/03 03:47:25;;;;;;;8.88;7.03;;;;;;;28.50;45.47;101293.66;4969333;28;20050;-80
2022/07/03 03:49:52;;;;;;;15.88;7.28;;;;;;;28.18;45.47;101247.59;4969004;28;20046;-79
2022/07/03 03:52:19;;;;;;;12.13;6.65;;;;;;;28.26;45.72;101266.31;4968887;28;20051;-79
2022/07/03 03:54:45;;;;;;;20.25;7.78;;;;;;;28.34;45.77;101284.25;4969094;28;20058;-80
2022/07/03 03:57:23;;;;;;;10.38;6.75;;;;;;;28.30;46.17;101283.91;4970236;28;20546;-81
2022/07/03 03:59:50;;;;;;;10.55;6.38;;;;;;;28.11;45.73;101264.06;4970424;28;20294;-80
2022/07/03 04:02:18;;;;;;;12.88;7.13;;;;;;;28.12;46.08;101271.19;4969441;28;20066;-79
2022/07/03 04:04:45;;;;;;;16.00;8.95;;;;;;;27.99;46.03;101276.03;4968948;28;20053;-80
2022/07/03 04:07:12;;;;;;;15.13;8.32;;;;;;;28.06;47.58;101317.69;4970488;28;20059;-80
2022/07/03 04:09:39;;;;;;;11.48;8.38;;;;;;;27.87;48.13;101312.34;4970786;28;20137;-80
2022/07/03 04:12:06;;;;;;;11.80;8.15;;;;;;;27.66;48.52;101307.38;4969226;28;20089;-80
2022/07/03 04:14:33;;;;;;;16.33;8.70;;;;;;;27.72;48.30;101292.84;4969186;28;20387;-80
2022/07/03 04:17:00;;;;;;;15.85;8.82;;;;;;;27.66;48.26;101288.28;4969339;28;20066;-81
2022/07/03 04:19:26;;;;;;;17.48;8.77;;;;;;;27.79;48.47;101319.97;4969094;28;20054;-81
2022/07/03 04:21:53;;;;;;;18.30;9.02;;;;;;;27.70;48.79;101319.50;4969166;28;20074;-81
2022/07/03 04:24:21;;;;;;;16.02;8.98;;;;;;;27.61;49.16;101309.97;4968869;28;20065;-81
2022/07/03 04:26:48;;;;;;;20.42;9.10;;;;;;;27.52;48.94;101325.00;4969102;28;20059;-82
2022/07/03 04:29:14;;;;;;;13.65;8.63;;;;;;;27.59;49.25;101332.03;4970119;28;20046;-81
2022/07/03 04:31:41;;;;;;;11.75;7.88;;;;;;;27.10;48.88;101238.53;4968801;28;20082;-80
2022/07/03 04:34:08;;;;;;;15.55;7.80;;;;;;;27.64;48.97;101329.44;4969535;28;20051;-81
2022/07/03 04:36:34;;;;;;;15.75;8.90;;;;;;;27.22;48.98;101263.97;4968371;28;20047;-81
2022/07/03 04:39:01;;;;;;;18.17;9.13;;;;;;;27.71;49.27;101341.06;4963982;28;20039;-80
2022/07/03 04:41:28;;;;;;;14.65;9.48;;;;;;;27.63;49.70;101333.22;4956934;28;20537;-80
2022/07/03 04:43:55;;;;;;;20.25;10.50;;;;;;;27.63;49.50;101337.84;4968640;28;20051;-80
2022/07/03 04:46:23;;;;;;;15.07;10.90;;;;;;;26.99;49.15;101214.78;4967833;28;20055;-80
2022/07/03 04:48:49;;;;;;;19.80;10.32;;;;;;;27.56;49.52;101320.75;4961561;28;20047;-80
2022/07/03 04:51:16;;;;;;;16.00;9.48;;;;;;;27.76;49.10;101337.66;4948094;29;20047;-80
2022/07/03 04:53:43;;;;;;;14.50;9.48;;;;;;;27.86;48.85;101337.94;4962559;28;20047;-80
2022/07/03 04:56:13;;;;;;;17.35;9.10;;;;;;;27.76;49.23;101329.47;4966968;28;20042;-80
2022/07/03 04:58:39;;;;;;;15.15;8.82;;;;;;;27.51;48.76;101280.56;4967721;28;20474;-81
2022/07/03 05:01:06;;;;;;;17.73;8.70;;;;;;;27.82;48.81;101331.31;4969071;28;20062;-80
2022/07/03 05:03:33;;;;;;;15.18;9.32;;;;;;;27.68;49.25;101308.00;4968603;28;20055;-79
2022/07/03 05:06:01;;;;;;;14.02;8.70;;;;;;;27.86;48.77;101320.75;4967792;28;20346;-82
2022/07/03 05:08:29;;;;;;;20.05;8.52;;;;;;;27.55;48.64;101289.09;4967935;28;20053;-80
2022/07/03 05:10:56;;;;;;;16.42;8.68;;;;;;;27.84;48.86;101334.63;4967412;28;20577;-80
2022/07/03 05:13:22;;;;;;;13.82;8.63;;;;;;;27.91;49.58;101338.09;4968357;28;20056;-80
2022/07/03 05:15:49;;;;;;;11.95;8.25;;;;;;;27.83;48.64;101304.84;4967223;28;20141;-80
2022/07/03 05:18:16;;;;;;;13.38;8.18;;;;;;;28.14;48.26;101341.91;4966843;28;20066;-80
2022/07/03 05:20:47;;;;;;;17.60;8.27;;;;;;;28.09;47.38;101322.69;4966659;28;20450;-78
2022/07/03 05:23:17;;;;;;;15.70;8.68;;;;;;;27.40;47.58;101218.63;4965675;28;20053;-80
2022/07/03 05:25:43;;;;;;;11.13;7.13;;;;;;;28.05;47.01;101308.66;4968057;28;20175;-80
2022/07/03 05:28:13;;;;;;;13.95;7.72;;;;;;;28.34;46.94;101330.66;4966758;28;20576;-81
2022/07/03 05:30:41;;;;;;;16.35;8.20;;;;;;;28.13;47.80;101293.84;4966013;28;20058;-80
2022/07/03 05:33:08;;;;;;;14.07;7.55;;;;;;;28.26;47.53;101301.81;4950699;28;20055;-80
2022/07/03 05:35:34;;;;;;;13.15;7.75;;;;;;;27.89;47.49;101228.34;4947224;29;20047;-81
2022/07/03 05:38:01;;;;;;;12.40;7.80;;;;;;;28.62;47.42;101354.56;4961090;28;20054;-80
2022/07/03 05:40:28;;;;;;;14.23;7.35;;;;;;;28.52;47.67;101322.38;4950202;28;20054;-81
2022/07/03 05:42:55;;;;;;;13.77;7.15;;;;;;;28.25;47.81;101275.56;4947351;28;20063;-79
2022/07/03 05:45:22;;;;;;;13.65;7.78;;;;;;;28.67;47.79;101337.47;4947925;28;20051;-80
2022/07/03 05:47:51;;;;;;;13.63;7.55;;;;;;;28.65;47.37;101329.50;4948189;28;20051;-82
2022/07/03 05:50:17;;;;;;;17.40;7.57;;;;;;;28.78;47.20;101342.06;4948279;28;20392;-80
2022/07/03 05:52:44;;;;;;;17.15;7.97;;;;;;;28.59;47.49;101296.84;4951330;28;20483;-80
2022/07/03 05:55:12;;;;;;;21.75;8.40;;;;;;;28.68;47.41;101309.06;4967120;28;20105;-82
2022/07/03 05:57:39;;;;;;;15.40;8.00;;;;;;;28.83;47.47;101339.44;4965547;28;20050;-81
2022/07/03 06:00:06;;;;;;;18.15;8.32;;;;;;;28.98;47.03;101344.38;4966556;28;20105;-79
2022/07/03 06:02:33;;;;;;;13.40;8.02;;;;;;;29.01;47.14;101349.41;4966062;28;20499;-79
2022/07/03 06:04:59;;;;;;;14.63;8.27;;;;;;;28.75;45.80;101277.78;4966477;28;20047;-79
2022/07/03 06:07:26;;;;;;;14.70;8.32;;;;;;;29.06;46.12;101329.53;4967557;28;20081;-81
2022/07/03 06:09:53;;;;;;;8.75;7.85;;;;;;;29.00;45.79;101290.31;4967023;28;20061;-80
2022/07/03 06:12:20;;;;;;;13.85;8.10;;;;;;;29.24;45.89;101342.22;4966292;28;20054;-81
2022/07/03 06:14:46;;;;;;;12.35;7.72;;;;;;;28.90;45.66;101280.00;4967356;28;20082;-81
2022/07/03 06:17:13;;;;;;;16.50;8.18;;;;;;;29.29;46.32;101347.78;4969447;28;20094;-81
2022/07/03 06:19:40;;;;;;;20.40;8.38;;;;;;;29.10;46.39;101312.41;4977727;28;20154;-80
2022/07/03 06:22:07;;;;;;;10.75;8.77;;;;;;;29.09;46.24;101305.31;4979266;28;20062;-83
2022/07/03 06:24:34;;;;;;;18.38;8.38;;;;;;;29.42;46.04;101360.34;4969083;29;20310;-82
2022/07/03 06:27:01;;;;;;;18.48;8.60;;;;;;;29.38;45.37;101341.69;4970897;29;20047;-82
2022/07/03 06:29:27;;;;;;;9.73;8.57;;;;;;;29.40;45.38;101336.81;4965285;29;20051;-82
2022/07/03 06:31:54;;;;;;;15.95;8.52;;;;;;;29.74;44.68;101363.47;4954485;29;20051;-82
2022/07/03 06:34:21;;;;;;;11.68;7.68;;;;;;;29.74;44.36;101356.06;4952432;29;20138;-82
2022/07/03 06:36:48;;;;;;;13.70;7.60;;;;;;;29.89;43.91;101355.50;4950511;29;20055;-81
2022/07/03 06:39:14;;;;;;;10.07;7.63;;;;;;;29.88;44.08;101362.06;4957036;28;20062;-81
2022/07/03 06:41:41;;;;;;;11.45;7.85;;;;;;;29.19;44.17;101253.56;4970454;28;20043;-81
2022/07/03 06:44:08;;;;;;;13.80;7.75;;;;;;;29.64;44.06;101309.34;4971041;28;20058;-82
2022/07/03 06:46:35;;;;;;;11.27;7.57;;;;;;;30.06;43.47;101366.47;4971815;28;20082;-82
2022/07/03 06:49:02;;;;;;;13.18;7.65;;;;;;;29.43;43.63;101252.63;4970815;28;20051;-83
2022/07/03 06:51:33;;;;;;;12.73;7.65;;;;;;;30.07;43.64;101367.28;4968930;28;20047;-81
2022/07/03 06:54:01;;;;;;;13.90;8.32;;;;;;;30.13;43.15;101366.31;4970511;28;20331;-82
2022/07/03 06:56:29;;;;;;;11.40;7.85;;;;;;;30.04;43.40;101336.59;4970365;28;20063;-81
2022/07/03 06:58:56;;;;;;;18.05;8.43;;;;;;;30.23;43.17;101367.28;4968330;28;20054;-82
2022/07/03 07:01:23;;;;;;;14.60;7.53;;;;;;;30.17;42.49;101349.16;4967619;28;20062;-83
2022/07/03 07:03:50;;;;;;;17.65;8.30;;;;;;;29.68;42.39;101244.03;4967698;28;20153;-82
2022/07/03 07:06:17;;;;;;;14.90;7.97;;;;;;;29.02;42.81;101154.25;4968759;28;20054;-82
2022/07/03 07:08:44;;;;;;;12.13;7.78;;;;;;;29.86;42.53;101282.13;4970589;28;20066;-82
2022/07/03 07:11:11;;;;;;;14.45;7.97;;;;;;;30.43;42.38;101355.03;4969694;28;20058;-83
2022/07/03 07:13:37;;;;;;;13.32;6.97;;;;;;;30.39;42.34;101334.69;4970522;28;20058;-80
2022/07/03 07:16:05;;;;;;;12.20;7.85;;;;;;;30.15;41.89;101279.28;4970584;28;20054;-81
2022/07/03 07:18:32;;;;;;;11.02;7.78;;;;;;;30.58;41.56;101335.25;4970761;28;20664;-82
2022/07/03 07:20:58;;;;;;;12.52;7.70;;;;;;;29.79;41.72;101218.50;4955764;28;20051;-79
2022/07/03 07:23:25;;;;;;;10.05;7.25;;;;;;;30.62;41.28;101337.22;4950935;29;20153;-81
2022/07/03 07:25:52;;;;;;;13.98;7.40;;;;;;;30.68;40.60;101324.41;4949946;29;20055;-82
2022/07/03 07:28:19;;;;;;;12.38;7.47;;;;;;;30.72;41.18;101347.50;4968199;28;20050;-83
2022/07/03 07:30:45;;;;;;;14.48;7.65;;;;;;;30.45;41.31;101309.06;4972084;28;20061;-82
2022/07/03 07:33:12;;;;;;;14.95;6.90;;;;;;;30.79;41.49;101342.66;4971464;28;20055;-80
2022/07/03 07:35:39;;;;;;;13.55;7.47;;;;;;;30.74;41.52;101341.78;4971183;28;20490;-79
2022/07/03 07:38:05;;;;;;;8.95;7.78;;;;;;;30.75;40.87;101325.06;4953993;28;20573;-79
2022/07/03 07:40:35;;;;;;;11.82;7.30;;;;;;;30.66;41.27;101307.44;4954819;28;20062;-82
2022/07/03 07:43:02;;;;;;;11.50;7.75;;;;;;;30.34;41.28;101242.34;4950204;28;20051;-82
2022/07/03 07:45:28;;;;;;;10.63;7.15;;;;;;;30.97;41.10;101351.69;4951067;28;20538;-80
2022/07/03 07:47:55;;;;;;;13.80;7.63;;;;;;;31.02;40.93;101336.16;4950003;28;20126;-82
2022/07/03 07:50:22;;;;;;;13.13;8.55;;;;;;;31.16;40.92;101344.81;4950361;28;20051;-82
2022/07/03 07:52:49;;;;;;;16.00;8.32;;;;;;;31.05;40.40;101307.41;4950011;28;20102;-82
2022/07/03 07:55:15;;;;;;;10.30;7.28;;;;;;;31.35;40.54;101349.97;4951359;28;20066;-82
2022/07/03 07:57:42;;;;;;;12.70;7.57;;;;;;;31.29;40.71;101355.41;4948995;28;20083;-82
2022/07/03 08:00:12;;;;;;;13.10;7.60;;;;;;;31.32;40.29;101336.78;4949944;28;20059;-82
2022/07/03 08:05:40;;;;;;;13.70;8.20;;;;;;;31.28;40.24;101322.72;4950356;29;20129;-80
2022/07/03 08:08:13;;;;;;;11.93;7.75;;;;;;;31.43;40.60;101344.88;4949436;29;20074;-80
2022/07/03 08:11:08;;;;;;;15.00;8.70;;;;;;;31.27;40.69;101302.72;4949525;29;20121;-81
2022/07/03 08:13:37;;;;;;;10.77;7.43;;;;;;;31.35;39.97;101293.19;4948419;29;20360;-80
2022/07/03 08:16:05;;;;;;;15.00;7.57;;;;;;;30.76;40.22;101205.34;4948912;29;20074;-81
2022/07/03 08:18:32;;;;;;;15.10;8.40;;;;;;;31.65;39.56;101333.88;4948562;29;20062;-83
2022/07/03 08:21:07;;;;;;;13.95;9.05;;;;;;;31.68;39.91;101322.34;4948906;29;20051;-83
2022/07/03 08:23:34;;;;;;;10.30;7.95;;;;;;;31.76;39.32;101326.53;4949687;29;20054;-81
2022/07/03 08:26:01;;;;;;;10.15;7.70;;;;;;;31.09;39.05;101226.25;4949431;29;20055;-81
2022/07/03 08:28:29;;;;;;;14.63;8.27;;;;;;;31.80;39.09;101335.91;4949602;29;20477;-82
2022/07/03 08:30:56;;;;;;;9.25;7.80;;;;;;;31.89;38.86;101334.31;4949355;29;20051;-80
2022/07/03 08:33:22;;;;;;;9.73;7.10;;;;;;;32.06;37.85;101334.22;4950788;28;20057;-81
2022/07/03 08:35:49;;;;;;;12.13;7.25;;;;;;;32.04;38.31;101324.59;4949891;29;20090;-81
2022/07/03 08:38:16;;;;;;;10.88;7.72;;;;;;;32.12;38.68;101326.88;4949665;28;20591;-81
2022/07/03 08:40:44;;;;;;;15.75;7.68;;;;;;;32.19;38.65;101313.75;4966065;28;20463;-79
2022/07/03 08:43:11;;;;;;;13.35;7.93;;;;;;;32.33;37.64;101314.09;4968640;28;20058;-82
2022/07/03 08:45:39;;;;;;;14.32;7.55;;;;;;;31.84;38.55;101237.38;4968363;28;20051;-80
2022/07/03 08:48:07;;;;;;;13.02;7.05;;;;;;;32.26;38.56;101313.50;4969942;28;20054;-80
2022/07/03 08:50:36;;;;;;;12.15;7.43;;;;;;;31.90;38.09;101225.38;4968384;28;20057;-81
2022/07/03 08:53:03;;;;;;;16.10;8.23;;;;;;;32.40;37.94;101303.69;4968209;28;20479;-80
2022/07/03 08:55:29;;;;;;;11.15;8.02;;;;;;;32.37;38.22;101304.22;4968067;28;20054;-80
2022/07/03 08:58:03;;;;;;;12.85;7.43;;;;;;;32.48;38.12;101310.59;4968249;28;20050;-81
2022/07/03 09:00:32;;;;;;;14.00;6.93;;;;;;;32.67;36.84;101302.78;4968436;28;20125;-81
2022/07/03 09:03:04;;;;;;;16.25;7.65;;;;;;;32.75;36.49;101285.78;4967988;28;20157;-81
2022/07/03 09:05:31;;;;;;;13.48;7.90;;;;;;;32.86;36.44;101298.44;4968179;28;20081;-81
2022/07/03 09:08:00;;;;;;;9.13;7.00;;;;;;;32.94;36.30;101299.84;4968425;28;20097;-81
2022/07/03 09:10:30;;;;;;;12.65;7.05;;;;;;;32.92;36.82;101308.38;4967920;28;20158;-81
2022/07/03 09:12:58;;;;;;;12.57;7.38;;;;;;;32.43;36.64;101220.75;4968356;28;20062;-80
2022/07/03 09:15:25;;;;;;;11.57;7.25;;;;;;;33.01;36.20;101305.94;4967906;28;20438;-80
2022/07/03 09:17:59;;;;;;;12.75;7.38;;;;;;;33.02;36.97;101315.84;4968044;28;20051;-81
2022/07/03 09:20:35;;;;;;;13.23;7.40;;;;;;;32.64;37.08;101251.91;4969126;28;20495;-80
2022/07/03 09:23:22;;;;;;;11.10;6.88;;;;;;;33.11;36.38;101313.41;4969173;28;20117;-79
2022/07/03 09:25:52;;;;;;;13.13;7.53;;;;;;;33.09;35.98;101318.38;4967327;28;20060;-81
2022/07/03 09:28:20;;;;;;;20.88;7.25;;;;;;;33.12;36.54;101309.59;4968642;28;20349;-81
2022/07/03 09:31:06;;;;;;;16.00;7.95;;;;;;;33.35;35.64;101308.25;4968543;28;20503;-81
2022/07/03 09:33:33;;;;;;;12.45;7.00;;;;;;;32.97;36.14;101236.91;4967829;28;20050;-81
2022/07/03 09:36:00;;;;;;;12.23;7.07;;;;;;;33.49;35.79;101303.06;4969077;28;20055;-81
2022/07/03 09:38:27;;;;;;;9.05;7.50;;;;;;;33.67;35.43;101294.31;4968214;28;20105;-79
2022/07/03 09:40:56;;;;;;;12.55;7.60;;;;;;;33.30;35.09;101192.69;4964601;28;20051;-82
2022/07/03 09:43:31;;;;;;;13.68;7.32;;;;;;;34.12;34.96;101306.41;4950988;28;20411;-80
2022/07/03 09:46:00;;;;;;;12.65;7.15;;;;;;;33.76;34.40;101201.78;4949506;29;20047;-81
2022/07/03 09:48:38;;;;;;;11.15;7.03;;;;;;;33.77;33.87;101213.63;4952368;28;20051;-83
2022/07/03 09:51:11;;;;;;;10.60;7.20;;;;;;;34.51;33.94;101289.25;4949650;29;20536;-80
2022/07/03 09:53:48;;;;;;;14.45;7.40;;;;;;;34.59;33.73;101283.19;4959310;28;20048;-80
2022/07/03 09:56:24;;;;;;;16.30;8.23;;;;;;;34.64;33.96;101288.69;4951667;29;20063;-81
2022/07/03 09:59:03;;;;;;;13.65;7.38;;;;;;;34.76;33.05;101290.28;4951294;28;20475;-81
2022/07/03 10:01:31;;;;;;;7.55;6.50;;;;;;;34.74;33.09;101265.75;4946423;29;20106;-81
2022/07/03 10:04:18;;;;;;;11.35;5.90;;;;;;;35.04;31.80;101286.84;4944880;29;20051;-82
2022/07/03 10:07:00;;;;;;;9.25;6.93;;;;;;;35.06;32.21;101284.63;4963526;28;20132;-81
2022/07/03 10:09:34;;;;;;;10.13;7.15;;;;;;;35.07;32.24;101269.69;4948297;29;20515;-80
2022/07/03 10:12:03;;;;;;;17.17;7.18;;;;;;;35.27;32.66;101290.03;4948179;29;20475;-82
2022/07/03 10:14:32;;;;;;;11.52;7.43;;;;;;;35.56;31.81;101281.00;4964048;28;20055;-81
2022/07/03 10:17:01;;;;;;;13.63;7.18;;;;;;;35.74;31.29;101261.00;4948047;29;20066;-83
2022/07/03 10:19:30;;;;;;;11.43;6.88;;;;;;;35.48;31.15;101208.72;4947871;29;20101;-81
2022/07/03 10:22:00;;;;;;;11.18;6.45;;;;;;;35.99;30.85;101270.16;4948141;29;20043;-81
2022/07/03 10:24:29;;;;;;;11.55;6.63;;;;;;;35.93;30.49;101256.41;4947547;29;20058;-81
2022/07/03 10:26:57;;;;;;;12.15;7.03;;;;;;;35.93;30.59;101237.06;4948596;29;20047;-80
2022/07/03 10:29:26;;;;;;;11.20;7.03;;;;;;;35.84;29.62;101168.94;4949480;28;20486;-82
2022/07/03 10:31:56;;;;;;;11.90;6.43;;;;;;;36.49;30.11;101265.22;4947597;29;20196;-82
2022/07/03 10:34:35;;;;;;;17.55;7.35;;;;;;;36.44;30.06;101262.53;4947920;29;20423;-81
2022/07/03 10:37:04;;;;;;;10.88;6.75;;;;;;;36.56;29.05;101252.69;4949386;28;20152;-81
2022/07/03 10:44:45;;;;;;;11.55;6.82;;;;;;;36.65;29.49;101263.94;4963839;28;20051;-82
2022/07/03 10:46:14;;;;;;;13.40;6.90;;;;;;;37.05;28.99;101250.69;4962829;28;20051;-82
2022/07/03 10:49:05;;;;;;;9.00;6.72;;;;;;;37.24;28.60;101263.69;4971303;28;20040;-84
2022/07/03 10:51:45;;;;;;;13.15;6.63;;;;;;;37.40;27.98;101262.31;4962617;29;20047;-82
2022/07/03 10:54:20;;;;;;;14.57;6.80;;;;;;;37.30;27.94;101224.56;4965270;28;20055;-82
2022/07/03 10:57:01;;;;;;;6.93;6.32;;;;;;;37.60;27.57;101262.03;4968176;28;20092;-82
2022/07/03 10:59:31;;;;;;;10.40;6.75;;;;;;;37.30;27.57;101201.59;4966558;28;20109;-85
2022/07/03 11:02:32;;;;;;;11.73;7.32;;;;;;;37.59;27.55;101260.38;4967022;28;20093;-79
2022/07/03 11:04:59;;;;;;;10.27;6.80;;;;;;;37.70;27.80;101255.50;4970345;28;20125;-79
2022/07/03 11:07:29;;;;;;;9.68;6.40;;;;;;;37.92;27.15;101252.06;4970545;28;20312;-80
2022/07/03 11:10:15;;;;;;;7.97;6.32;;;;;;;38.09;26.94;101250.66;4970666;28;20150;-79
2022/07/03 11:13:09;;;;;;;12.73;6.97;;;;;;;38.12;27.02;101238.97;4970755;28;20082;-79
2022/07/03 11:15:49;;;;;;;12.90;7.07;;;;;;;38.27;27.10;101241.44;4970180;28;20054;-80
2022/07/03 11:18:19;;;;;;;25.05;7.40;;;;;;;38.34;27.31;101236.28;4970425;28;20043;-80
2022/07/03 11:21:13;;;;;;;12.18;7.03;;;;;;;38.75;26.41;101229.91;4970569;28;20077;-81
2022/07/03 11:23:59;;;;;;;10.65;6.53;;;;;;;38.86;25.48;101224.94;4970165;28;20051;-82
2022/07/03 11:26:25;;;;;;;8.38;6.20;;;;;;;38.80;26.05;101221.47;4970083;28;20590;-80
2022/07/03 11:28:55;;;;;;;14.77;7.10;;;;;;;39.01;26.05;101227.41;4970262;28;20055;-80
2022/07/03 11:31:25;;;;;;;11.20;6.93;;;;;;;39.05;26.35;101202.59;4969692;28;20134;-80
2022/07/03 11:33:55;;;;;;;;;;;;;;;39.10;25.86;101214.38;4970637;28;20130;-80
2022/07/03 11:36:25;;;;;;;10.02;6.45;;;;;;;39.21;26.06;101211.38;4970275;28;19922;-80
2022/07/03 11:38:55;;;;;;;12.23;6.78;;;;;;;39.35;25.60;101208.50;4970122;28;20139;-79
2022/07/03 11:41:23;;;;;;;9.75;5.65;;;;;;;39.15;24.94;101171.81;4970459;28;20054;-79
2022/07/03 11:43:55;;;;;;;8.50;6.00;;;;;;;39.57;25.14;101189.09;4971160;28;20298;-80